sensor_id;sensor_type;location;lat;lon;timestamp;P1;durP1;ratioP1;P2;durP2;ratioP2
36391;SDS011;22639;42.690;23.356;2023-03-23T00:01:24;77.63;;;49.00;;
36391;SDS011;22639;42.690;23.356;2023-03-23T00:03:52;72.03;;;47.40;;
36391;SDS011;22639;42.690;23.356;2023-03-23T00:06:18;69.43;;;46.73;;
36391;SDS011;22639;42.690;23.356;2023-03-23T00:08:44;72.17;;;49.17;;
36391;SDS011;22639;42.690;23.356;2023-03-23T00:11:17;76.00;;;52.07;;
36391;SDS011;22639;42.690;23.356;2023-03-23T00:13:44;73.77;;;49.93;;
36391;SDS011;22639;42.690;23.356;2023-03-23T00:16:11;70.93;;;47.30;;
36391;SDS011;22639;42.690;23.356;2023-03-23T00:18:51;73.97;;;47.20;;
36391;SDS011;22639;42.690;23.356;2023-03-23T00:21:28;61.60;;;44.47;;
36391;SDS011;22639;42.690;23.356;2023-03-23T00:24:10;66.30;;;44.97;;
36391;SDS011;22639;42.690;23.356;2023-03-23T00:26:36;70.07;;;48.37;;
36391;SDS011;22639;42.690;23.356;2023-03-23T00:29:05;73.97;;;51.93;;
36391;SDS011;22639;42.690;23.356;2023-03-23T00:31:30;83.83;;;51.47;;
36391;SDS011;22639;42.690;23.356;2023-03-23T00:34:00;79.53;;;54.83;;
36391;SDS011;22639;42.690;23.356;2023-03-23T00:36:26;100.70;;;65.17;;
36391;SDS011;22639;42.690;23.356;2023-03-23T00:38:51;121.83;;;80.80;;
36391;SDS011;22639;42.690;23.356;2023-03-23T00:41:17;129.77;;;82.03;;
36391;SDS011;22639;42.690;23.356;2023-03-23T00:43:42;107.90;;;72.37;;
36391;SDS011;22639;42.690;23.356;2023-03-23T00:46:08;114.53;;;70.47;;
36391;SDS011;22639;42.690;23.356;2023-03-23T00:48:34;124.77;;;75.70;;
36391;SDS011;22639;42.690;23.356;2023-03-23T00:51:00;140.37;;;76.27;;
36391;SDS011;22639;42.690;23.356;2023-03-23T00:53:26;124.80;;;71.33;;
36391;SDS011;22639;42.690;23.356;2023-03-23T00:55:51;120.90;;;71.60;;
36391;SDS011;22639;42.690;23.356;2023-03-23T00:58:19;114.67;;;67.03;;
36391;SDS011;22639;42.690;23.356;2023-03-23T01:00:45;116.17;;;65.57;;
36391;SDS011;22639;42.690;23.356;2023-03-23T01:03:10;85.77;;;55.70;;
36391;SDS011;22639;42.690;23.356;2023-03-23T01:05:43;85.17;;;57.50;;
36391;SDS011;22639;42.690;23.356;2023-03-23T01:08:08;104.67;;;58.70;;
36391;SDS011;22639;42.690;23.356;2023-03-23T01:10:35;73.37;;;48.43;;
36391;SDS011;22639;42.690;23.356;2023-03-23T01:13:03;90.27;;;58.37;;
36391;SDS011;22639;42.690;23.356;2023-03-23T01:15:29;95.97;;;58.30;;
36391;SDS011;22639;42.690;23.356;2023-03-23T01:17:55;95.10;;;59.63;;
36391;SDS011;22639;42.690;23.356;2023-03-23T01:20:20;97.17;;;54.80;;
36391;SDS011;22639;42.690;23.356;2023-03-23T01:22:46;85.17;;;52.80;;
36391;SDS011;22639;42.690;23.356;2023-03-23T01:25:12;85.47;;;52.43;;
36391;SDS011;22639;42.690;23.356;2023-03-23T01:27:37;103.57;;;49.80;;
36391;SDS011;22639;42.690;23.356;2023-03-23T01:30:03;108.27;;;49.87;;
36391;SDS011;22639;42.690;23.356;2023-03-23T01:32:29;110.77;;;52.07;;
36391;SDS011;22639;42.690;23.356;2023-03-23T01:34:55;89.93;;;50.00;;
36391;SDS011;22639;42.690;23.356;2023-03-23T01:37:20;111.20;;;49.37;;
36391;SDS011;22639;42.690;23.356;2023-03-23T01:39:51;97.70;;;50.53;;
36391;SDS011;22639;42.690;23.356;2023-03-23T01:42:16;87.20;;;50.37;;
36391;SDS011;22639;42.690;23.356;2023-03-23T01:47:10;90.13;;;49.73;;
36391;SDS011;22639;42.690;23.356;2023-03-23T01:49:36;77.70;;;48.47;;
36391;SDS011;22639;42.690;23.356;2023-03-23T01:52:04;78.20;;;48.23;;
36391;SDS011;22639;42.690;23.356;2023-03-23T01:54:31;76.67;;;48.37;;
36391;SDS011;22639;42.690;23.356;2023-03-23T01:56:59;74.67;;;46.87;;
36391;SDS011;22639;42.690;23.356;2023-03-23T01:59:25;78.70;;;48.40;;
36391;SDS011;22639;42.690;23.356;2023-03-23T02:01:51;84.77;;;49.30;;
36391;SDS011;22639;42.690;23.356;2023-03-23T02:04:17;71.63;;;48.30;;
36391;SDS011;22639;42.690;23.356;2023-03-23T02:06:43;75.17;;;47.63;;
36391;SDS011;22639;42.690;23.356;2023-03-23T02:09:10;77.63;;;48.03;;
36391;SDS011;22639;42.690;23.356;2023-03-23T02:11:35;75.77;;;45.87;;
36391;SDS011;22639;42.690;23.356;2023-03-23T02:14:01;70.47;;;45.53;;
36391;SDS011;22639;42.690;23.356;2023-03-23T02:26:54;76.57;;;48.20;;
36391;SDS011;22639;42.690;23.356;2023-03-23T02:31:56;79.87;;;52.47;;
36391;SDS011;22639;42.690;23.356;2023-03-23T02:34:29;83.30;;;50.33;;
36391;SDS011;22639;42.690;23.356;2023-03-23T02:37:09;75.83;;;47.27;;
36391;SDS011;22639;42.690;23.356;2023-03-23T02:39:39;72.60;;;45.43;;
36391;SDS011;22639;42.690;23.356;2023-03-23T02:42:08;74.50;;;46.77;;
36391;SDS011;22639;42.690;23.356;2023-03-23T02:44:35;71.10;;;41.53;;
36391;SDS011;22639;42.690;23.356;2023-03-23T02:47:03;57.20;;;36.60;;
36391;SDS011;22639;42.690;23.356;2023-03-23T02:49:29;52.97;;;37.00;;
36391;SDS011;22639;42.690;23.356;2023-03-23T02:51:57;58.03;;;37.97;;
36391;SDS011;22639;42.690;23.356;2023-03-23T02:54:23;62.60;;;39.77;;
36391;SDS011;22639;42.690;23.356;2023-03-23T02:56:50;55.57;;;37.77;;
36391;SDS011;22639;42.690;23.356;2023-03-23T02:59:16;50.73;;;37.07;;
36391;SDS011;22639;42.690;23.356;2023-03-23T03:04:09;78.27;;;56.47;;
36391;SDS011;22639;42.690;23.356;2023-03-23T03:09:20;71.23;;;49.73;;
36391;SDS011;22639;42.690;23.356;2023-03-23T03:11:47;77.57;;;48.77;;
36391;SDS011;22639;42.690;23.356;2023-03-23T03:14:22;42.33;;;27.23;;
36391;SDS011;22639;42.690;23.356;2023-03-23T03:16:53;37.70;;;24.37;;
36391;SDS011;22639;42.690;23.356;2023-03-23T03:19:24;35.07;;;23.03;;
36391;SDS011;22639;42.690;23.356;2023-03-23T03:21:52;27.83;;;21.43;;
36391;SDS011;22639;42.690;23.356;2023-03-23T03:24:18;29.93;;;21.00;;
36391;SDS011;22639;42.690;23.356;2023-03-23T03:26:46;34.23;;;21.70;;
36391;SDS011;22639;42.690;23.356;2023-03-23T03:29:12;43.00;;;27.23;;
36391;SDS011;22639;42.690;23.356;2023-03-23T03:31:39;52.63;;;33.53;;
36391;SDS011;22639;42.690;23.356;2023-03-23T03:34:04;53.63;;;33.47;;
36391;SDS011;22639;42.690;23.356;2023-03-23T03:36:30;62.90;;;39.13;;
36391;SDS011;22639;42.690;23.356;2023-03-23T03:38:59;40.77;;;28.80;;
36391;SDS011;22639;42.690;23.356;2023-03-23T03:41:25;39.50;;;29.50;;
36391;SDS011;22639;42.690;23.356;2023-03-23T03:43:51;41.23;;;27.43;;
36391;SDS011;22639;42.690;23.356;2023-03-23T03:46:16;32.23;;;24.27;;
36391;SDS011;22639;42.690;23.356;2023-03-23T03:48:41;28.10;;;19.00;;
36391;SDS011;22639;42.690;23.356;2023-03-23T03:51:06;29.10;;;18.93;;
36391;SDS011;22639;42.690;23.356;2023-03-23T03:53:33;31.13;;;21.03;;
36391;SDS011;22639;42.690;23.356;2023-03-23T03:55:59;32.27;;;20.03;;
36391;SDS011;22639;42.690;23.356;2023-03-23T03:58:32;29.43;;;22.17;;
36391;SDS011;22639;42.690;23.356;2023-03-23T04:00:58;31.43;;;21.47;;
36391;SDS011;22639;42.690;23.356;2023-03-23T04:03:24;32.23;;;21.33;;
36391;SDS011;22639;42.690;23.356;2023-03-23T04:05:50;25.97;;;19.83;;
36391;SDS011;22639;42.690;23.356;2023-03-23T04:08:16;30.33;;;21.20;;
36391;SDS011;22639;42.690;23.356;2023-03-23T04:10:41;31.03;;;21.10;;
36391;SDS011;22639;42.690;23.356;2023-03-23T04:13:06;29.33;;;20.50;;
36391;SDS011;22639;42.690;23.356;2023-03-23T04:15:32;30.13;;;22.27;;
36391;SDS011;22639;42.690;23.356;2023-03-23T04:17:57;30.63;;;22.00;;
36391;SDS011;22639;42.690;23.356;2023-03-23T04:20:23;30.80;;;20.77;;
36391;SDS011;22639;42.690;23.356;2023-03-23T04:22:50;41.40;;;28.17;;
36391;SDS011;22639;42.690;23.356;2023-03-23T04:25:17;43.03;;;27.73;;
36391;SDS011;22639;42.690;23.356;2023-03-23T04:27:45;37.00;;;25.87;;
36391;SDS011;22639;42.690;23.356;2023-03-23T04:30:19;39.40;;;27.33;;
36391;SDS011;22639;42.690;23.356;2023-03-23T04:32:47;37.37;;;26.27;;
36391;SDS011;22639;42.690;23.356;2023-03-23T04:35:19;36.63;;;28.00;;
36391;SDS011;22639;42.690;23.356;2023-03-23T04:37:46;37.40;;;24.70;;
36391;SDS011;22639;42.690;23.356;2023-03-23T04:40:11;38.23;;;25.00;;
36391;SDS011;22639;42.690;23.356;2023-03-23T04:42:42;32.40;;;23.17;;
36391;SDS011;22639;42.690;23.356;2023-03-23T04:45:18;29.40;;;22.33;;
36391;SDS011;22639;42.690;23.356;2023-03-23T04:47:46;37.40;;;26.63;;
36391;SDS011;22639;42.690;23.356;2023-03-23T04:50:18;41.63;;;30.97;;
36391;SDS011;22639;42.690;23.356;2023-03-23T04:52:45;42.73;;;29.00;;
36391;SDS011;22639;42.690;23.356;2023-03-23T04:55:10;44.83;;;33.07;;
36391;SDS011;22639;42.690;23.356;2023-03-23T04:57:35;33.27;;;23.93;;
36391;SDS011;22639;42.690;23.356;2023-03-23T05:00:01;39.00;;;26.07;;
36391;SDS011;22639;42.690;23.356;2023-03-23T05:02:37;51.07;;;36.27;;
36391;SDS011;22639;42.690;23.356;2023-03-23T05:05:05;57.27;;;40.10;;
36391;SDS011;22639;42.690;23.356;2023-03-23T05:07:31;46.70;;;33.27;;
36391;SDS011;22639;42.690;23.356;2023-03-23T05:09:56;53.80;;;35.73;;
36391;SDS011;22639;42.690;23.356;2023-03-23T05:12:21;49.97;;;36.60;;
36391;SDS011;22639;42.690;23.356;2023-03-23T05:14:48;51.17;;;33.03;;
36391;SDS011;22639;42.690;23.356;2023-03-23T05:17:13;43.10;;;31.67;;
36391;SDS011;22639;42.690;23.356;2023-03-23T05:19:42;46.73;;;33.70;;
36391;SDS011;22639;42.690;23.356;2023-03-23T05:22:09;42.20;;;28.10;;
36391;SDS011;22639;42.690;23.356;2023-03-23T05:24:34;40.47;;;28.77;;
36391;SDS011;22639;42.690;23.356;2023-03-23T05:26:59;46.97;;;30.03;;
36391;SDS011;22639;42.690;23.356;2023-03-23T05:29:25;45.30;;;30.77;;
36391;SDS011;22639;42.690;23.356;2023-03-23T05:31:50;44.33;;;28.93;;
36391;SDS011;22639;42.690;23.356;2023-03-23T05:34:17;40.73;;;28.73;;
36391;SDS011;22639;42.690;23.356;2023-03-23T05:36:43;38.60;;;26.67;;
36391;SDS011;22639;42.690;23.356;2023-03-23T05:39:09;43.27;;;26.70;;
36391;SDS011;22639;42.690;23.356;2023-03-23T05:41:35;36.73;;;25.13;;
36391;SDS011;22639;42.690;23.356;2023-03-23T05:44:00;45.70;;;28.60;;
36391;SDS011;22639;42.690;23.356;2023-03-23T05:46:25;43.87;;;27.10;;
36391;SDS011;22639;42.690;23.356;2023-03-23T05:48:51;39.17;;;27.00;;
36391;SDS011;22639;42.690;23.356;2023-03-23T05:51:16;34.33;;;24.23;;
36391;SDS011;22639;42.690;23.356;2023-03-23T05:53:41;31.50;;;22.83;;
36391;SDS011;22639;42.690;23.356;2023-03-23T05:56:07;35.27;;;24.97;;
36391;SDS011;22639;42.690;23.356;2023-03-23T05:58:33;35.07;;;25.90;;
36391;SDS011;22639;42.690;23.356;2023-03-23T06:00:58;34.40;;;26.40;;
36391;SDS011;22639;42.690;23.356;2023-03-23T06:03:23;43.43;;;29.03;;
36391;SDS011;22639;42.690;23.356;2023-03-23T06:05:48;34.37;;;27.53;;
36391;SDS011;22639;42.690;23.356;2023-03-23T06:08:15;35.60;;;28.27;;
36391;SDS011;22639;42.690;23.356;2023-03-23T06:10:40;43.17;;;27.27;;
36391;SDS011;22639;42.690;23.356;2023-03-23T06:13:05;32.60;;;24.27;;
36391;SDS011;22639;42.690;23.356;2023-03-23T06:15:31;32.23;;;23.33;;
36391;SDS011;22639;42.690;23.356;2023-03-23T06:18:06;30.17;;;23.40;;
36391;SDS011;22639;42.690;23.356;2023-03-23T06:20:31;28.90;;;22.40;;
36391;SDS011;22639;42.690;23.356;2023-03-23T06:22:57;31.83;;;22.60;;
36391;SDS011;22639;42.690;23.356;2023-03-23T06:25:23;29.53;;;22.67;;
36391;SDS011;22639;42.690;23.356;2023-03-23T06:27:49;29.53;;;23.53;;
36391;SDS011;22639;42.690;23.356;2023-03-23T06:30:14;33.37;;;23.63;;
36391;SDS011;22639;42.690;23.356;2023-03-23T06:32:40;31.87;;;23.83;;
36391;SDS011;22639;42.690;23.356;2023-03-23T06:35:06;28.35;;;22.23;;
36391;SDS011;22639;42.690;23.356;2023-03-23T06:37:34;31.25;;;22.83;;
36391;SDS011;22639;42.690;23.356;2023-03-23T06:40:00;29.20;;;21.48;;
36391;SDS011;22639;42.690;23.356;2023-03-23T06:42:26;28.30;;;21.77;;
36391;SDS011;22639;42.690;23.356;2023-03-23T06:44:53;28.67;;;21.98;;
36391;SDS011;22639;42.690;23.356;2023-03-23T06:47:21;29.02;;;21.25;;
36391;SDS011;22639;42.690;23.356;2023-03-23T06:49:48;22.98;;;19.75;;
36391;SDS011;22639;42.690;23.356;2023-03-23T06:52:13;23.80;;;21.00;;
36391;SDS011;22639;42.690;23.356;2023-03-23T06:54:38;21.83;;;19.52;;
36391;SDS011;22639;42.690;23.356;2023-03-23T06:57:04;24.83;;;21.27;;
36391;SDS011;22639;42.690;23.356;2023-03-23T06:59:32;31.25;;;24.55;;
36391;SDS011;22639;42.690;23.356;2023-03-23T07:01:57;21.48;;;19.17;;
36391;SDS011;22639;42.690;23.356;2023-03-23T07:04:22;23.25;;;19.95;;
36391;SDS011;22639;42.690;23.356;2023-03-23T07:06:48;24.25;;;20.30;;
36391;SDS011;22639;42.690;23.356;2023-03-23T07:09:13;25.20;;;21.23;;
36391;SDS011;22639;42.690;23.356;2023-03-23T07:11:40;27.70;;;21.58;;
36391;SDS011;22639;42.690;23.356;2023-03-23T07:14:06;23.23;;;20.40;;
36391;SDS011;22639;42.690;23.356;2023-03-23T07:16:31;23.33;;;20.75;;
36391;SDS011;22639;42.690;23.356;2023-03-23T07:18:56;26.98;;;21.50;;
36391;SDS011;22639;42.690;23.356;2023-03-23T07:21:22;25.17;;;20.00;;
36391;SDS011;22639;42.690;23.356;2023-03-23T07:23:47;25.02;;;21.67;;
36391;SDS011;22639;42.690;23.356;2023-03-23T07:26:12;23.42;;;21.08;;
36391;SDS011;22639;42.690;23.356;2023-03-23T07:28:38;23.52;;;20.63;;
36391;SDS011;22639;42.690;23.356;2023-03-23T07:31:05;23.65;;;20.83;;
36391;SDS011;22639;42.690;23.356;2023-03-23T07:33:30;22.42;;;19.67;;
36391;SDS011;22639;42.690;23.356;2023-03-23T07:35:55;23.20;;;20.25;;
36391;SDS011;22639;42.690;23.356;2023-03-23T07:38:23;24.55;;;21.83;;
36391;SDS011;22639;42.690;23.356;2023-03-23T07:40:50;26.20;;;21.40;;
36391;SDS011;22639;42.690;23.356;2023-03-23T07:43:15;24.23;;;21.63;;
36391;SDS011;22639;42.690;23.356;2023-03-23T07:45:40;25.25;;;22.52;;
36391;SDS011;22639;42.690;23.356;2023-03-23T07:48:06;29.10;;;22.45;;
36391;SDS011;22639;42.690;23.356;2023-03-23T07:50:31;25.23;;;21.52;;
36391;SDS011;22639;42.690;23.356;2023-03-23T07:52:57;25.38;;;20.75;;
36391;SDS011;22639;42.690;23.356;2023-03-23T07:55:23;25.60;;;20.42;;
36391;SDS011;22639;42.690;23.356;2023-03-23T07:57:51;26.50;;;21.98;;
36391;SDS011;22639;42.690;23.356;2023-03-23T08:00:18;23.35;;;20.90;;
36391;SDS011;22639;42.690;23.356;2023-03-23T08:02:45;25.30;;;22.25;;
36391;SDS011;22639;42.690;23.356;2023-03-23T08:05:11;25.08;;;21.88;;
36391;SDS011;22639;42.690;23.356;2023-03-23T08:07:38;25.27;;;22.58;;
36391;SDS011;22639;42.690;23.356;2023-03-23T08:10:04;25.20;;;20.45;;
36391;SDS011;22639;42.690;23.356;2023-03-23T08:12:29;25.52;;;21.25;;
36391;SDS011;22639;42.690;23.356;2023-03-23T08:14:55;27.63;;;20.45;;
36391;SDS011;22639;42.690;23.356;2023-03-23T08:17:20;20.25;;;18.20;;
36391;SDS011;22639;42.690;23.356;2023-03-23T08:19:46;19.05;;;17.02;;
36391;SDS011;22639;42.690;23.356;2023-03-23T08:22:12;25.13;;;20.25;;
36391;SDS011;22639;42.690;23.356;2023-03-23T08:24:38;22.50;;;20.20;;
36391;SDS011;22639;42.690;23.356;2023-03-23T08:27:03;20.33;;;17.67;;
36391;SDS011;22639;42.690;23.356;2023-03-23T08:29:29;21.02;;;18.67;;
36391;SDS011;22639;42.690;23.356;2023-03-23T08:31:56;22.15;;;19.83;;
36391;SDS011;22639;42.690;23.356;2023-03-23T08:34:21;21.17;;;19.02;;
36391;SDS011;22639;42.690;23.356;2023-03-23T08:36:47;19.70;;;17.80;;
36391;SDS011;22639;42.690;23.356;2023-03-23T08:39:13;23.33;;;20.60;;
36391;SDS011;22639;42.690;23.356;2023-03-23T08:41:43;23.70;;;21.25;;
36391;SDS011;22639;42.690;23.356;2023-03-23T08:44:08;24.33;;;21.73;;
36391;SDS011;22639;42.690;23.356;2023-03-23T08:46:34;21.63;;;19.23;;
36391;SDS011;22639;42.690;23.356;2023-03-23T08:48:59;19.85;;;17.70;;
36391;SDS011;22639;42.690;23.356;2023-03-23T08:51:24;15.63;;;14.07;;
36391;SDS011;22639;42.690;23.356;2023-03-23T08:53:50;17.95;;;16.15;;
36391;SDS011;22639;42.690;23.356;2023-03-23T08:56:16;14.65;;;13.10;;
36391;SDS011;22639;42.690;23.356;2023-03-23T08:58:41;12.13;;;10.93;;
36391;SDS011;22639;42.690;23.356;2023-03-23T09:01:07;9.95;;;8.98;;
36391;SDS011;22639;42.690;23.356;2023-03-23T09:03:33;10.30;;;9.40;;
36391;SDS011;22639;42.690;23.356;2023-03-23T09:06:00;10.77;;;8.73;;
36391;SDS011;22639;42.690;23.356;2023-03-23T09:08:26;11.05;;;9.95;;
36391;SDS011;22639;42.690;23.356;2023-03-23T09:10:53;8.85;;;7.95;;
36391;SDS011;22639;42.690;23.356;2023-03-23T09:13:19;11.10;;;10.00;;
36391;SDS011;22639;42.690;23.356;2023-03-23T09:15:45;11.27;;;10.00;;
36391;SDS011;22639;42.690;23.356;2023-03-23T09:18:11;10.73;;;9.60;;
36391;SDS011;22639;42.690;23.356;2023-03-23T09:20:36;10.38;;;9.30;;
36391;SDS011;22639;42.690;23.356;2023-03-23T09:23:02;8.30;;;7.50;;
36391;SDS011;22639;42.690;23.356;2023-03-23T09:25:28;8.85;;;8.00;;
36391;SDS011;22639;42.690;23.356;2023-03-23T09:27:57;9.98;;;9.07;;
36391;SDS011;22639;42.690;23.356;2023-03-23T09:30:30;11.48;;;10.45;;
36391;SDS011;22639;42.690;23.356;2023-03-23T09:32:56;11.55;;;10.38;;
36391;SDS011;22639;42.690;23.356;2023-03-23T09:35:22;10.00;;;9.00;;
36391;SDS011;22639;42.690;23.356;2023-03-23T09:37:48;8.93;;;8.13;;
36391;SDS011;22639;42.690;23.356;2023-03-23T09:40:20;7.40;;;6.70;;
36391;SDS011;22639;42.690;23.356;2023-03-23T09:42:56;9.05;;;7.80;;
36391;SDS011;22639;42.690;23.356;2023-03-23T09:45:27;8.65;;;7.28;;
36391;SDS011;22639;42.690;23.356;2023-03-23T09:50:30;8.73;;;7.72;;
36391;SDS011;22639;42.690;23.356;2023-03-23T09:53:10;8.00;;;7.20;;
36391;SDS011;22639;42.690;23.356;2023-03-23T09:55:38;7.53;;;6.82;;
36391;SDS011;22639;42.690;23.356;2023-03-23T10:01:00;8.02;;;7.22;;
36391;SDS011;22639;42.690;23.356;2023-03-23T10:03:29;7.18;;;6.47;;
36391;SDS011;22639;42.690;23.356;2023-03-23T10:05:55;7.38;;;6.68;;
36391;SDS011;22639;42.690;23.356;2023-03-23T10:08:25;7.20;;;6.50;;
36391;SDS011;22639;42.690;23.356;2023-03-23T10:11:07;7.68;;;6.60;;
36391;SDS011;22639;42.690;23.356;2023-03-23T10:16:03;9.05;;;8.15;;
36391;SDS011;22639;42.690;23.356;2023-03-23T10:21:15;9.25;;;8.30;;
36391;SDS011;22639;42.690;23.356;2023-03-23T10:23:48;9.98;;;8.98;;
36391;SDS011;22639;42.690;23.356;2023-03-23T10:28:41;9.73;;;8.55;;
36391;SDS011;22639;42.690;23.356;2023-03-23T10:31:09;8.88;;;7.93;;
36391;SDS011;22639;42.690;23.356;2023-03-23T10:33:44;10.10;;;8.77;;
36391;SDS011;22639;42.690;23.356;2023-03-23T10:36:12;8.35;;;7.47;;
36391;SDS011;22639;42.690;23.356;2023-03-23T10:38:43;7.22;;;6.53;;
36391;SDS011;22639;42.690;23.356;2023-03-23T10:41:10;8.38;;;7.57;;
36391;SDS011;22639;42.690;23.356;2023-03-23T10:43:39;9.40;;;7.45;;
36391;SDS011;22639;42.690;23.356;2023-03-23T10:46:26;7.90;;;7.20;;
36391;SDS011;22639;42.690;23.356;2023-03-23T10:48:53;8.15;;;7.35;;
36391;SDS011;22639;42.690;23.356;2023-03-23T10:51:22;9.82;;;8.38;;
36391;SDS011;22639;42.690;23.356;2023-03-23T10:53:49;8.93;;;8.02;;
36391;SDS011;22639;42.690;23.356;2023-03-23T10:56:22;8.25;;;7.38;;
36391;SDS011;22639;42.690;23.356;2023-03-23T10:58:49;8.88;;;7.10;;
36391;SDS011;22639;42.690;23.356;2023-03-23T11:01:17;8.02;;;7.22;;
36391;SDS011;22639;42.690;23.356;2023-03-23T11:03:44;8.52;;;7.00;;
36391;SDS011;22639;42.690;23.356;2023-03-23T11:06:20;7.63;;;6.82;;
36391;SDS011;22639;42.690;23.356;2023-03-23T11:08:48;8.25;;;7.55;;
36391;SDS011;22639;42.690;23.356;2023-03-23T11:11:25;8.73;;;7.60;;
36391;SDS011;22639;42.690;23.356;2023-03-23T11:13:56;8.82;;;7.63;;
36391;SDS011;22639;42.690;23.356;2023-03-23T11:16:28;8.95;;;8.15;;
36391;SDS011;22639;42.690;23.356;2023-03-23T11:18:54;8.88;;;7.97;;
36391;SDS011;22639;42.690;23.356;2023-03-23T11:21:20;8.20;;;7.35;;
36391;SDS011;22639;42.690;23.356;2023-03-23T11:23:50;8.45;;;7.18;;
36391;SDS011;22639;42.690;23.356;2023-03-23T11:26:17;8.32;;;7.50;;
36391;SDS011;22639;42.690;23.356;2023-03-23T11:31:24;9.75;;;7.50;;
36391;SDS011;22639;42.690;23.356;2023-03-23T11:33:56;7.68;;;6.95;;
36391;SDS011;22639;42.690;23.356;2023-03-23T11:36:28;7.72;;;6.68;;
36391;SDS011;22639;42.690;23.356;2023-03-23T11:38:54;7.28;;;6.32;;
36391;SDS011;22639;42.690;23.356;2023-03-23T11:41:22;8.18;;;6.35;;
36391;SDS011;22639;42.690;23.356;2023-03-23T11:43:51;7.20;;;6.32;;
36391;SDS011;22639;42.690;23.356;2023-03-23T11:48:55;8.32;;;7.28;;
36391;SDS011;22639;42.690;23.356;2023-03-23T11:51:28;8.90;;;8.00;;
36391;SDS011;22639;42.690;23.356;2023-03-23T11:56:39;8.80;;;7.90;;
36391;SDS011;22639;42.690;23.356;2023-03-23T11:59:12;9.93;;;6.97;;
36391;SDS011;22639;42.690;23.356;2023-03-23T12:24:28;8.65;;;7.80;;
36391;SDS011;22639;42.690;23.356;2023-03-23T12:37:51;8.07;;;7.20;;
36391;SDS011;22639;42.690;23.356;2023-03-23T12:42:59;8.65;;;7.07;;
36391;SDS011;22639;42.690;23.356;2023-03-23T12:48:12;7.85;;;7.05;;
36391;SDS011;22639;42.690;23.356;2023-03-23T12:50:40;9.05;;;7.75;;
36391;SDS011;22639;42.690;23.356;2023-03-23T12:56:02;8.30;;;7.22;;
36391;SDS011;22639;42.690;23.356;2023-03-23T12:58:30;8.35;;;7.05;;
36391;SDS011;22639;42.690;23.356;2023-03-23T13:03:32;8.27;;;7.20;;
36391;SDS011;22639;42.690;23.356;2023-03-23T13:08:37;8.15;;;6.43;;
36391;SDS011;22639;42.690;23.356;2023-03-23T13:11:08;8.45;;;7.35;;
36391;SDS011;22639;42.690;23.356;2023-03-23T13:16:11;8.05;;;6.45;;
36391;SDS011;22639;42.690;23.356;2023-03-23T13:21:28;7.45;;;6.75;;
36391;SDS011;22639;42.690;23.356;2023-03-23T13:26:23;7.35;;;6.25;;
36391;SDS011;22639;42.690;23.356;2023-03-23T13:31:22;7.47;;;6.63;;
36391;SDS011;22639;42.690;23.356;2023-03-23T13:33:53;7.05;;;6.35;;
36391;SDS011;22639;42.690;23.356;2023-03-23T13:36:52;8.48;;;7.38;;
36391;SDS011;22639;42.690;23.356;2023-03-23T13:39:20;8.05;;;6.68;;
36391;SDS011;22639;42.690;23.356;2023-03-23T13:42:29;7.68;;;6.90;;
36391;SDS011;22639;42.690;23.356;2023-03-23T13:44:42;7.63;;;6.60;;
36391;SDS011;22639;42.690;23.356;2023-03-23T13:47:26;7.28;;;6.57;;
36391;SDS011;22639;42.690;23.356;2023-03-23T13:50:03;8.23;;;6.75;;
36391;SDS011;22639;42.690;23.356;2023-03-23T13:52:52;6.82;;;6.05;;
36391;SDS011;22639;42.690;23.356;2023-03-23T14:08:13;7.70;;;6.82;;
36391;SDS011;22639;42.690;23.356;2023-03-23T14:10:43;8.75;;;7.22;;
36391;SDS011;22639;42.690;23.356;2023-03-23T14:16:05;8.35;;;6.45;;
36391;SDS011;22639;42.690;23.356;2023-03-23T14:18:39;7.78;;;6.32;;
36391;SDS011;22639;42.690;23.356;2023-03-23T14:21:05;8.27;;;6.43;;
36391;SDS011;22639;42.690;23.356;2023-03-23T14:23:32;7.80;;;6.93;;
36391;SDS011;22639;42.690;23.356;2023-03-23T14:26:01;8.55;;;7.15;;
36391;SDS011;22639;42.690;23.356;2023-03-23T14:28:32;7.97;;;7.18;;
36391;SDS011;22639;42.690;23.356;2023-03-23T14:31:00;8.32;;;6.85;;
36391;SDS011;22639;42.690;23.356;2023-03-23T14:33:26;7.72;;;6.32;;
36391;SDS011;22639;42.690;23.356;2023-03-23T14:35:52;6.93;;;6.05;;
36391;SDS011;22639;42.690;23.356;2023-03-23T14:38:20;6.43;;;5.82;;
36391;SDS011;22639;42.690;23.356;2023-03-23T14:40:46;7.97;;;6.00;;
36391;SDS011;22639;42.690;23.356;2023-03-23T14:43:13;6.47;;;5.68;;
36391;SDS011;22639;42.690;23.356;2023-03-23T14:45:40;7.60;;;6.43;;
36391;SDS011;22639;42.690;23.356;2023-03-23T14:48:05;7.07;;;6.32;;
36391;SDS011;22639;42.690;23.356;2023-03-23T14:50:39;7.72;;;6.63;;
36391;SDS011;22639;42.690;23.356;2023-03-23T14:53:11;7.85;;;6.55;;
36391;SDS011;22639;42.690;23.356;2023-03-23T14:55:36;9.90;;;7.25;;
36391;SDS011;22639;42.690;23.356;2023-03-23T14:58:08;7.60;;;6.80;;
36391;SDS011;22639;42.690;23.356;2023-03-23T15:00:39;7.30;;;6.60;;
36391;SDS011;22639;42.690;23.356;2023-03-23T15:03:05;7.88;;;6.53;;
36391;SDS011;22639;42.690;23.356;2023-03-23T15:05:35;6.57;;;5.70;;
36391;SDS011;22639;42.690;23.356;2023-03-23T15:08:06;7.78;;;6.72;;
36391;SDS011;22639;42.690;23.356;2023-03-23T15:10:32;6.60;;;5.50;;
36391;SDS011;22639;42.690;23.356;2023-03-23T15:12:57;7.32;;;6.38;;
36391;SDS011;22639;42.690;23.356;2023-03-23T15:17:54;7.70;;;6.20;;
36391;SDS011;22639;42.690;23.356;2023-03-23T15:20:30;8.02;;;6.45;;
36391;SDS011;22639;42.690;23.356;2023-03-23T15:22:56;7.50;;;6.15;;
36391;SDS011;22639;42.690;23.356;2023-03-23T15:25:31;7.63;;;6.38;;
36391;SDS011;22639;42.690;23.356;2023-03-23T15:27:58;7.78;;;6.28;;
36391;SDS011;22639;42.690;23.356;2023-03-23T15:30:33;9.88;;;6.22;;
36391;SDS011;22639;42.690;23.356;2023-03-23T15:33:10;6.70;;;5.93;;
36391;SDS011;22639;42.690;23.356;2023-03-23T15:35:36;8.30;;;6.13;;
36391;SDS011;22639;42.690;23.356;2023-03-23T15:38:04;8.82;;;6.60;;
36391;SDS011;22639;42.690;23.356;2023-03-23T15:40:36;6.85;;;6.00;;
36391;SDS011;22639;42.690;23.356;2023-03-23T15:43:48;10.18;;;7.30;;
36391;SDS011;22639;42.690;23.356;2023-03-23T15:46:04;7.13;;;6.38;;
36391;SDS011;22639;42.690;23.356;2023-03-23T15:48:31;7.30;;;6.45;;
36391;SDS011;22639;42.690;23.356;2023-03-23T15:50:57;6.95;;;6.25;;
36391;SDS011;22639;42.690;23.356;2023-03-23T15:53:27;8.07;;;5.53;;
36391;SDS011;22639;42.690;23.356;2023-03-23T15:55:52;7.20;;;6.47;;
36391;SDS011;22639;42.690;23.356;2023-03-23T15:58:18;6.25;;;5.30;;
36391;SDS011;22639;42.690;23.356;2023-03-23T16:00:43;8.82;;;6.55;;
36391;SDS011;22639;42.690;23.356;2023-03-23T16:03:16;7.03;;;6.20;;
36391;SDS011;22639;42.690;23.356;2023-03-23T16:05:43;7.00;;;5.72;;
36391;SDS011;22639;42.690;23.356;2023-03-23T16:08:09;6.20;;;5.60;;
36391;SDS011;22639;42.690;23.356;2023-03-23T16:10:36;6.45;;;5.78;;
36391;SDS011;22639;42.690;23.356;2023-03-23T16:13:02;6.90;;;6.20;;
36391;SDS011;22639;42.690;23.356;2023-03-23T16:15:29;7.70;;;6.65;;
36391;SDS011;22639;42.690;23.356;2023-03-23T16:17:54;8.60;;;6.15;;
36391;SDS011;22639;42.690;23.356;2023-03-23T16:20:20;7.50;;;6.38;;